Time;durP1;ratioP1;P1;durP2;ratioP2;P2;SDS_P1;SDS_P2;PMS_P1;PMS_P2;Temp;Humidity;BMP_temperature;BMP_pressure;BME280_temperature;BME280_humidity;BME280_pressure;Samples;Min_cycle;Max_cycle;Signal;HPM_P1;HPM_P2
2024/04/02 00:00:43;;;;;;;;;;;;;;;5.96;100.00;95564.22;5063756;28;19988;-74
2024/04/02 00:03:10;;;;;;;;;;;;;;;5.96;100.00;95577.22;5046712;28;19942;-73
2024/04/02 00:05:36;;;;;;;;;;;;;;;5.96;100.00;95579.81;5046136;28;19950;-73
2024/04/02 00:08:03;;;;;;;;;;;;;;;5.94;100.00;95584.41;5063660;28;19942;-73
2024/04/02 00:10:29;;;;;;;;;;;;;;;5.89;100.00;95573.84;5063242;28;19955;-73
2024/04/02 00:12:55;;;;;;;;;;;;;;;5.85;100.00;95577.88;5063657;28;19943;-72
2024/04/02 00:15:21;;;;;;;;;;;;;;;5.80;100.00;95586.31;5063711;28;19937;-73
2024/04/02 00:17:47;;;;;;;;;;;;;;;5.78;100.00;95585.72;5063728;28;20279;-73
2024/04/02 00:20:13;;;;;;;;;;;;;;;5.74;100.00;95586.34;5045812;28;19940;-73
2024/04/02 00:22:42;;;;;;;;;;;;;;;5.73;100.00;95585.53;5063440;28;19939;-72
2024/04/02 00:25:08;;;;;;;;;;;;;;;5.75;100.00;95582.72;5064188;28;19960;-72
2024/04/02 00:27:33;;;;;;;;;;;;;;;5.75;100.00;95591.31;5046473;28;20216;-73
2024/04/02 00:29:59;;;;;;;;;;;;;;;5.79;100.00;95597.72;5029884;28;20101;-73
2024/04/02 00:32:25;;;;;;;;;;;;;;;5.79;100.00;95607.31;5063599;28;19936;-73
2024/04/02 00:34:51;;;;;;;;;;;;;;;5.79;100.00;95605.50;5063586;28;20247;-74
2024/04/02 00:37:17;;;;;;;;;;;;;;;5.77;100.00;95604.94;5064005;28;19957;-73
2024/04/02 00:39:43;;;;;;;;;;;;;;;5.78;100.00;95606.53;5064277;28;20247;-73
2024/04/02 00:42:09;;;;;;;;;;;;;;;5.77;100.00;95620.53;5029992;28;20243;-73
2024/04/02 00:44:35;;;;;;;;;;;;;;;5.74;100.00;95618.38;5030047;28;19942;-69
2024/04/02 00:47:02;;;;;;;;;;;;;;;5.70;100.00;95617.97;5063376;28;19938;-70
2024/04/02 00:49:28;;;;;;;;;;;;;;;5.62;100.00;95613.00;5029776;28;19961;-69
2024/04/02 00:51:54;;;;;;;;;;;;;;;5.58;100.00;95611.03;5063376;28;19937;-69
2024/04/02 00:54:20;;;;;;;;;;;;;;;5.58;100.00;95619.63;5063805;28;19950;-70
2024/04/02 00:56:46;;;;;;;;;;;;;;;5.60;100.00;95627.22;5063293;28;19934;-70
2024/04/02 00:59:11;;;;;;;;;;;;;;;5.60;100.00;95641.00;5046353;28;19938;-69
2024/04/02 01:01:37;;;;;;;;;;;;;;;5.61;100.00;95642.63;5046350;28;19940;-74
2024/04/02 01:04:04;;;;;;;;;;;;;;;5.60;100.00;95645.44;5029691;28;19953;-74
2024/04/02 01:06:30;;;;;;;;;;;;;;;5.59;100.00;95639.44;5063119;28;20130;-74
2024/04/02 01:08:56;;;;;;;;;;;;;;;5.58;100.00;95644.84;5063615;28;19962;-73
2024/04/02 01:11:23;;;;;;;;;;;;;;;5.53;100.00;95640.25;5063170;28;19951;-74
2024/04/02 01:13:51;;;;;;;;;;;;;;;5.52;100.00;95643.84;5066792;28;19946;-74
2024/04/02 01:16:17;;;;;;;;;;;;;;;5.51;100.00;95647.47;5066765;28;19945;-74
2024/04/02 01:18:45;;;;;;;;;;;;;;;5.51;100.00;95657.88;5049075;28;20022;-69
2024/04/02 01:21:11;;;;;;;;;;;;;;;5.52;100.00;95650.84;5048942;28;19946;-72
2024/04/02 01:23:37;;;;;;;;;;;;;;;5.54;100.00;95651.44;5066705;28;19964;-73
2024/04/02 01:26:03;;;;;;;;;;;;;;;5.56;100.00;95650.22;5067163;28;19945;-73
2024/04/02 01:28:29;;;;;;;;;;;;;;;5.60;100.00;95648.03;5033110;28;19981;-73
2024/04/02 01:30:55;;;;;;;;;;;;;;;5.59;100.00;95647.22;5049160;28;19997;-74
2024/04/02 01:33:21;;;;;;;;;;;;;;;5.58;100.00;95650.81;5066503;28;19951;-73
2024/04/02 01:35:46;;;;;;;;;;;;;;;5.56;100.00;95652.84;5049463;28;19984;-69
2024/04/02 01:38:12;;;;;;;;;;;;;;;5.55;100.00;95659.06;5066982;28;20193;-73
2024/04/02 01:40:38;;;;;;;;;;;;;;;5.53;100.00;95668.06;5066871;28;20261;-73
2024/04/02 01:43:05;;;;;;;;;;;;;;;5.48;100.00;95658.25;5048472;28;19992;-73
2024/04/02 01:45:31;;;;;;;;;;;;;;;5.45;100.00;95669.88;5066259;28;19942;-73
2024/04/02 01:47:57;;;;;;;;;;;;;;;5.42;100.00;95669.50;5066720;28;19965;-73
2024/04/02 01:50:23;;;;;;;;;;;;;;;5.42;100.00;95677.31;5066143;28;19957;-73
2024/04/02 01:52:49;;;;;;;;;;;;;;;5.42;100.00;95682.50;5066363;28;19945;-73
2024/04/02 01:55:15;;;;;;;;;;;;;;;5.46;100.00;95691.50;5066090;28;20160;-73
2024/04/02 01:57:40;;;;;;;;;;;;;;;5.49;100.00;95696.28;5066587;28;20180;-69
2024/04/02 02:00:06;;;;;;;;;;;;;;;5.55;100.00;95698.06;5031686;28;19946;-69
2024/04/02 02:02:32;;;;;;;;;;;;;;;5.60;100.00;95694.84;5066398;28;20115;-69
2024/04/02 02:04:58;;;;;;;;;;;;;;;5.65;100.00;95695.84;5066374;28;19951;-70
2024/04/02 02:07:24;;;;;;;;;;;;;;;5.69;100.00;95693.59;5065869;28;19953;-69
2024/04/02 02:09:50;;;;;;;;;;;;;;;5.75;100.00;95678.97;5048560;28;20055;-69
2024/04/02 02:12:16;;;;;;;;;;;;;;;5.80;100.00;95692.19;5066566;28;19949;-71
2024/04/02 02:14:42;;;;;;;;;;;;;;;5.84;100.00;95686.38;5032289;28;19948;-73
2024/04/02 02:17:07;;;;;;;;;;;;;;;5.87;100.00;95688.53;5065830;28;19945;-73
2024/04/02 02:19:33;;;;;;;;;;;;;;;5.92;100.00;95687.13;5048228;28;19976;-73
2024/04/02 02:21:59;;;;;;;;;;;;;;;5.94;100.00;95685.91;5048563;28;19938;-73
2024/04/02 02:24:25;;;;;;;;;;;;;;;5.96;100.00;95688.34;5065293;28;20016;-74
2024/04/02 02:26:51;;;;;;;;;;;;;;;5.96;100.00;95696.16;5065506;28;19953;-73
2024/04/02 02:29:22;;;;;;;;;;;;;;;5.99;100.00;95703.56;5065998;28;19961;-73
2024/04/02 02:31:48;;;;;;;;;;;;;;;6.05;100.00;95710.53;5066293;28;19933;-73
2024/04/02 02:34:14;;;;;;;;;;;;;;;6.07;100.00;95705.91;5047582;28;19939;-73
2024/04/02 02:36:40;;;;;;;;;;;;;;;6.09;100.00;95709.91;5065614;28;19942;-73
2024/04/02 02:39:05;;;;;;;;;;;;;;;6.12;100.00;95715.69;5047607;28;19949;-74
2024/04/02 02:41:31;;;;;;;;;;;;;;;6.14;100.00;95714.47;5065217;28;19937;-73
2024/04/02 02:43:58;;;;;;;;;;;;;;;6.15;100.00;95710.06;5065671;28;19938;-73
2024/04/02 02:46:24;;;;;;;;;;;;;;;6.18;100.00;95713.06;5047448;28;20239;-74
2024/04/02 02:48:50;;;;;;;;;;;;;;;6.19;100.00;95716.47;5065627;28;19947;-73
2024/04/02 02:51:16;;;;;;;;;;;;;;;6.17;100.00;95716.66;5064943;28;19962;-73
2024/04/02 02:53:41;;;;;;;;;;;;;;;6.16;100.00;95715.06;5065530;28;19948;-73
2024/04/02 02:56:07;;;;;;;;;;;;;;;6.15;100.00;95717.88;5064937;28;19943;-74
2024/04/02 02:58:33;;;;;;;;;;;;;;;6.14;100.00;95724.91;5064932;28;20178;-73
2024/04/02 03:01:03;;;;;;;;;;;;;;;6.15;100.00;95728.28;5064796;28;20018;-73
2024/04/02 03:03:29;;;;;;;;;;;;;;;6.13;100.00;95728.50;5065608;28;19940;-73
2024/04/02 03:05:55;;;;;;;;;;;;;;;6.15;100.00;95733.50;5047638;28;19946;-73
2024/04/02 03:08:22;;;;;;;;;;;;;;;6.16;100.00;95725.50;5047254;28;20159;-69
2024/04/02 03:11:01;;;;;;;;;;;;;;;6.18;100.00;95725.28;5047688;28;19951;-69
2024/04/02 03:13:27;;;;;;;;;;;;;;;6.20;100.00;95726.69;5063407;28;20129;-69
2024/04/02 03:15:53;;;;;;;;;;;;;;;6.17;100.00;95724.47;5064142;28;19991;-69
2024/04/02 03:18:19;;;;;;;;;;;;;;;6.17;100.00;95729.69;5064546;28;19939;-69
2024/04/02 03:20:45;;;;;;;;;;;;;;;6.17;100.00;95727.06;5030948;28;19981;-69
2024/04/02 03:23:11;;;;;;;;;;;;;;;6.16;100.00;95730.69;5046845;28;19975;-69
2024/04/02 03:25:38;;;;;;;;;;;;;;;6.09;100.00;95741.16;5063152;28;19942;-69
2024/04/02 03:28:07;;;;;;;;;;;;;;;6.09;100.00;95745.56;5063151;28;19945;-69
2024/04/02 03:30:33;;;;;;;;;;;;;;;6.07;100.00;95743.16;5064465;28;19961;-73
2024/04/02 03:32:58;;;;;;;;;;;;;;;6.07;100.00;95744.97;5030653;28;19963;-72
2024/04/02 03:35:24;;;;;;;;;;;;;;;6.06;100.00;95741.53;5030162;28;19945;-73
2024/04/02 03:37:50;;;;;;;;;;;;;;;6.05;100.00;95744.38;5029853;28;20003;-73
2024/04/02 03:40:16;;;;;;;;;;;;;;;6.06;100.00;95751.16;5047096;28;20110;-73
2024/04/02 03:42:42;;;;;;;;;;;;;;;6.06;100.00;95748.56;5064135;28;19942;-74
2024/04/02 03:45:08;;;;;;;;;;;;;;;6.03;100.00;95749.78;5046189;28;19952;-73
2024/04/02 03:47:34;;;;;;;;;;;;;;;6.01;100.00;95749.19;5064095;28;19937;-68
2024/04/02 03:49:59;;;;;;;;;;;;;;;6.00;100.00;95750.16;5063948;28;19952;-69
2024/04/02 03:52:25;;;;;;;;;;;;;;;5.99;100.00;95753.00;5046108;28;19939;-70
2024/04/02 03:54:51;;;;;;;;;;;;;;;5.97;100.00;95761.00;5030434;28;19940;-70
2024/04/02 03:57:17;;;;;;;;;;;;;;;5.98;100.00;95764.41;5064160;28;19968;-69
2024/04/02 03:59:43;;;;;;;;;;;;;;;5.98;100.00;95765.19;5030440;28;20203;-69
2024/04/02 04:02:08;;;;;;;;;;;;;;;5.97;100.00;95770.63;5063821;28;19948;-73
2024/04/02 04:04:34;;;;;;;;;;;;;;;5.98;100.00;95774.81;5046265;28;19944;-70
2024/04/02 04:07:00;;;;;;;;;;;;;;;5.96;100.00;95764.59;5046110;28;19990;-73
2024/04/02 04:09:26;;;;;;;;;;;;;;;5.97;100.00;95778.44;5046600;28;19960;-73
2024/04/02 04:11:52;;;;;;;;;;;;;;;5.98;100.00;95772.22;5063677;28;20030;-73
2024/04/02 04:14:17;;;;;;;;;;;;;;;5.94;100.00;95771.78;5064514;28;19935;-73
2024/04/02 04:16:43;;;;;;;;;;;;;;;5.93;100.00;95780.59;5047002;28;19946;-74
2024/04/02 04:19:09;;;;;;;;;;;;;;;5.93;100.00;95785.00;5063674;28;19942;-74
2024/04/02 04:21:36;;;;;;;;;;;;;;;5.93;100.00;95779.81;5063806;28;20221;-74
2024/04/02 04:24:02;;;;;;;;;;;;;;;5.94;100.00;95789.19;5063711;28;19970;-69
2024/04/02 04:26:28;;;;;;;;;;;;;;;5.93;100.00;95785.00;5063270;28;19950;-70
2024/04/02 04:28:54;;;;;;;;;;;;;;;5.92;100.00;95792.00;5045883;28;19941;-69
2024/04/02 04:31:20;;;;;;;;;;;;;;;5.93;100.00;95795.44;5063094;28;19965;-69
2024/04/02 04:33:46;;;;;;;;;;;;;;;5.92;100.00;95802.41;5045909;28;19941;-70
2024/04/02 04:36:12;;;;;;;;;;;;;;;5.92;100.00;95807.63;5064394;28;19940;-70
2024/04/02 04:38:38;;;;;;;;;;;;;;;5.93;100.00;95792.81;5063557;28;19941;-73
2024/04/02 04:41:03;;;;;;;;;;;;;;;5.93;100.00;95805.84;5063479;28;19944;-73
2024/04/02 04:43:29;;;;;;;;;;;;;;;5.96;100.00;95810.66;5030151;28;19966;-73
2024/04/02 04:45:57;;;;;;;;;;;;;;;5.95;100.00;95816.88;5063409;28;20229;-75
2024/04/02 04:48:23;;;;;;;;;;;;;;;5.97;100.00;95820.84;5032212;28;19949;-74
2024/04/02 04:50:56;;;;;;;;;;;;;;;5.99;100.00;95824.06;5049560;28;19965;-74
2024/04/02 04:53:21;;;;;;;;;;;;;;;6.00;100.00;95825.66;5067231;28;19941;-75
2024/04/02 04:55:47;;;;;;;;;;;;;;;6.02;100.00;95828.06;5049507;28;20012;-74
2024/04/02 04:58:13;;;;;;;;;;;;;;;6.03;100.00;95835.66;5033385;28;20240;-74
2024/04/02 05:00:39;;;;;;;;;;;;;;;6.08;100.00;95840.25;5049470;28;19977;-70
2024/04/02 05:03:05;;;;;;;;;;;;;;;6.12;100.00;95848.47;5067042;28;20250;-70
2024/04/02 05:05:33;;;;;;;;;;;;;;;6.13;100.00;95848.22;5049901;28;19946;-69
2024/04/02 05:08:17;;;;;;;;;;;;;;;6.17;100.00;95848.63;5033339;28;19943;-70
2024/04/02 05:10:44;;;;;;;;;;;;;;;6.17;100.00;95853.84;5066417;28;19955;-69
2024/04/02 05:13:10;;;;;;;;;;;;;;;6.18;100.00;95860.66;5066876;28;19935;-69
2024/04/02 05:15:36;;;;;;;;;;;;;;;6.17;100.00;95859.03;5066890;28;20130;-68
2024/04/02 05:18:01;;;;;;;;;;;;;;;6.17;100.00;95865.03;5066863;28;19940;-74
2024/04/02 05:20:27;;;;;;;;;;;;;;;6.17;100.00;95865.03;5049104;28;19933;-73
2024/04/02 05:22:54;;;;;;;;;;;;;;;6.16;100.00;95871.28;5049304;28;20259;-74
2024/04/02 05:25:20;;;;;;;;;;;;;;;6.19;100.00;95870.06;5049556;28;19943;-74
2024/04/02 05:27:47;;;;;;;;;;;;;;;6.23;100.00;95881.66;5066602;28;20230;-76
2024/04/02 05:30:13;;;;;;;;;;;;;;;6.25;100.00;95883.06;5066508;28;19947;-75
2024/04/02 05:32:39;;;;;;;;;;;;;;;6.25;100.00;95877.84;5066513;28;19942;-74
2024/04/02 05:35:05;;;;;;;;;;;;;;;6.32;100.00;95880.47;5048801;28;19955;-78
2024/04/02 05:37:31;;;;;;;;;;;;;;;6.76;100.00;95880.69;5067002;28;19950;-69
2024/04/02 05:39:57;;;;;;;;;;;;;;;7.35;100.00;95876.16;5066427;28;19940;-70
2024/04/02 05:42:22;;;;;;;;;;;;;;;7.97;100.00;95866.63;5066647;28;19983;-69
2024/04/02 05:44:48;;;;;;;;;;;;;;;8.42;100.00;95853.34;5066826;28;19939;-69
2024/04/02 05:47:14;;;;;;;;;;;;;;;8.94;100.00;95845.84;5067013;28;19947;-70
2024/04/02 05:49:40;;;;;;;;;;;;;;;9.37;100.00;95819.69;5066214;28;19947;-69
2024/04/02 05:52:06;;;;;;;;;;;;;;;9.61;100.00;95823.13;5048912;28;20001;-73
2024/04/02 05:54:32;;;;;;;;;;;;;;;9.98;100.00;95836.00;5048251;28;19939;-75
2024/04/02 05:57:00;;;;;;;;;;;;;;;10.33;100.00;95784.38;5066190;28;19942;-78
2024/04/02 05:59:26;;;;;;;;;;;;;;;10.69;100.00;95798.16;5065488;28;19937;-77
2024/04/02 06:01:52;;;;;;;;;;;;;;;10.94;100.00;95782.09;5065992;28;20018;-77
2024/04/02 06:04:18;;;;;;;;;;;;;;;11.45;100.00;95803.13;5047850;28;20230;-77
2024/04/02 06:06:46;;;;;;;;;;;;;;;11.75;97.36;95778.34;5047983;28;20128;-77
2024/04/02 06:09:12;;;;;;;;;;;;;;;11.45;96.70;95776.06;5048330;28;20269;-77
2024/04/02 06:11:38;;;;;;;;;;;;;;;10.76;100.00;95816.38;5047968;28;19958;-74
2024/04/02 06:14:03;;;;;;;;;;;;;;;10.06;100.00;95846.94;5065765;28;19945;-70
2024/04/02 06:16:29;;;;;;;;;;;;;;;9.43;100.00;95871.09;5066029;28;19941;-70
2024/04/02 06:18:55;;;;;;;;;;;;;;;8.97;100.00;95906.59;5066172;28;20036;-69
2024/04/02 06:21:21;;;;;;;;;;;;;;;8.59;100.00;95936.34;5066186;28;20234;-69
2024/04/02 06:23:47;;;;;;;;;;;;;;;8.21;100.00;95938.13;5047530;28;20016;-69
2024/04/02 06:26:16;;;;;;;;;;;;;;;7.89;100.00;95950.44;5065486;28;20009;-68
2024/04/02 06:28:43;;;;;;;;;;;;;;;7.67;100.00;95963.03;5066250;28;19937;-69
2024/04/02 06:31:09;;;;;;;;;;;;;;;7.48;100.00;95964.78;5047664;28;19957;-75
2024/04/02 06:33:35;;;;;;;;;;;;;;;7.35;100.00;95964.81;5031022;28;20112;-74
2024/04/02 06:36:01;;;;;;;;;;;;;;;7.24;100.00;95969.69;5065348;28;19940;-75
2024/04/02 06:38:26;;;;;;;;;;;;;;;7.19;100.00;95976.56;5066085;28;19945;-75
2024/04/02 06:40:52;;;;;;;;;;;;;;;7.18;100.00;95982.75;5066062;28;19985;-75
2024/04/02 06:43:18;;;;;;;;;;;;;;;7.11;100.00;95973.16;5065181;28;19936;-76
2024/04/02 06:45:53;;;;;;;;;;;;;;;7.13;100.00;95972.16;5065688;28;19938;-74
2024/04/02 06:48:19;;;;;;;;;;;;;;;7.19;100.00;95977.34;5048220;28;19942;-79
2024/04/02 06:50:45;;;;;;;;;;;;;;;7.41;100.00;95983.06;5047101;28;19989;-70
2024/04/02 06:53:11;;;;;;;;;;;;;;;7.58;100.00;95972.13;5030596;28;20149;-69
2024/04/02 06:55:37;;;;;;;;;;;;;;;7.63;100.00;95975.72;5065742;28;20093;-69
2024/04/02 06:58:03;;;;;;;;;;;;;;;7.63;100.00;95978.31;5031400;28;19957;-69
2024/04/02 07:00:28;;;;;;;;;;;;;;;7.64;100.00;95982.53;5064867;28;20230;-70
2024/04/02 07:02:55;;;;;;;;;;;;;;;7.61;100.00;95985.56;5047140;28;20016;-69
2024/04/02 07:05:20;;;;;;;;;;;;;;;7.51;100.00;95998.25;5046894;28;19950;-69
2024/04/02 07:07:48;;;;;;;;;;;;;;;7.47;100.00;95997.88;5030515;28;20254;-69
2024/04/02 07:10:14;;;;;;;;;;;;;;;7.56;100.00;96003.66;5063789;28;20143;-70
2024/04/02 07:12:40;;;;;;;;;;;;;;;7.79;100.00;96000.50;5065053;28;19965;-69
2024/04/02 07:15:06;;;;;;;;;;;;;;;7.90;100.00;95999.03;5046818;28;19952;-70
2024/04/02 07:17:32;;;;;;;;;;;;;;;7.93;100.00;95999.38;5065027;28;19947;-69
2024/04/02 07:19:58;;;;;;;;;;;;;;;8.12;100.00;96002.06;5046654;28;20235;-70
2024/04/02 07:22:24;;;;;;;;;;;;;;;8.61;100.00;95987.41;5065094;28;19939;-70
2024/04/02 07:24:50;;;;;;;;;;;;;;;8.97;100.00;95980.59;5064427;28;19948;-69
2024/04/02 07:27:15;;;;;;;;;;;;;;;9.31;100.00;95979.16;5047252;28;19989;-74
2024/04/02 07:29:42;;;;;;;;;;;;;;;9.62;100.00;95963.47;5064586;28;19964;-74
2024/04/02 07:32:08;;;;;;;;;;;;;;;9.78;100.00;95962.81;5065073;28;19957;-74
2024/04/02 07:34:33;;;;;;;;;;;;;;;10.04;100.00;95960.84;5064816;28;19943;-74
2024/04/02 07:37:00;;;;;;;;;;;;;;;10.10;100.00;95946.81;5064751;28;19932;-74
2024/04/02 07:39:25;;;;;;;;;;;;;;;10.17;100.00;95931.78;5064431;28;19938;-74
2024/04/02 07:41:51;;;;;;;;;;;;;;;10.31;100.00;95941.06;5047221;28;19965;-74
2024/04/02 07:44:17;;;;;;;;;;;;;;;10.46;100.00;95913.59;5063946;28;19953;-73
2024/04/02 07:46:43;;;;;;;;;;;;;;;10.68;100.00;95916.38;5064121;28;19934;-76
2024/04/02 07:49:09;;;;;;;;;;;;;;;10.62;100.00;95912.84;5046376;28;19939;-76
2024/04/02 07:51:34;;;;;;;;;;;;;;;10.38;100.00;95901.63;5064055;28;19953;-77
2024/04/02 07:54:00;;;;;;;;;;;;;;;10.20;100.00;95922.66;5030273;28;19990;-76
2024/04/02 07:56:26;;;;;;;;;;;;;;;10.03;100.00;95917.31;5063971;28;19933;-77
2024/04/02 07:58:52;;;;;;;;;;;;;;;9.79;100.00;95919.13;5063910;28;19946;-77
2024/04/02 08:01:18;;;;;;;;;;;;;;;9.62;100.00;95932.84;5064460;28;19941;-74
2024/04/02 08:03:43;;;;;;;;;;;;;;;9.53;100.00;95950.69;5063931;28;19945;-70
2024/04/02 08:06:10;;;;;;;;;;;;;;;9.49;100.00;95954.78;5046060;28;19947;-77
2024/04/02 08:08:36;;;;;;;;;;;;;;;9.49;100.00;95960.03;5045903;28;19961;-76
2024/04/02 08:11:02;;;;;;;;;;;;;;;9.29;100.00;95947.19;5046028;28;20133;-78
2024/04/02 08:13:28;;;;;;;;;;;;;;;9.20;100.00;95952.94;5064308;28;19939;-77
2024/04/02 08:15:54;;;;;;;;;;;;;;;9.11;100.00;95976.81;5046909;28;19943;-78
2024/04/02 08:18:20;;;;;;;;;;;;;;;9.17;100.00;95990.03;5046808;28;19938;-77
2024/04/02 08:20:45;;;;;;;;;;;;;;;9.32;100.00;95998.28;5063709;28;20116;-76
2024/04/02 08:23:11;;;;;;;;;;;;;;;9.38;100.00;96023.56;5050147;28;19966;-76
2024/04/02 08:25:37;;;;;;;;;;;;;;;9.43;100.00;96018.50;5050733;28;20230;-76
2024/04/02 08:28:03;;;;;;;;;;;;;;;9.42;100.00;96023.94;5033373;28;19989;-76
2024/04/02 08:30:29;;;;;;;;;;;;;;;9.34;100.00;96027.63;5067830;28;19945;-77
2024/04/02 08:32:55;;;;;;;;;;;;;;;9.23;100.00;96018.72;5068456;28;19961;-77
2024/04/02 08:35:20;;;;;;;;;;;;;;;9.11;100.00;96042.22;5068404;28;19961;-77
2024/04/02 08:37:46;;;;;;;;;;;;;;;9.01;100.00;96047.16;5049855;28;20162;-74
2024/04/02 08:40:12;;;;;;;;;;;;;;;9.31;100.00;96035.94;5067501;28;20219;-70
2024/04/02 08:42:39;;;;;;;;;;;;;;;9.63;100.00;96027.88;5049688;28;19946;-70
2024/04/02 08:45:06;;;;;;;;;;;;;;;9.81;100.00;96037.53;5032952;28;20109;-71
2024/04/02 08:47:33;;;;;;;;;;;;;;;9.92;100.00;96031.53;5066220;28;19949;-70
2024/04/02 08:49:59;;;;;;;;;;;;;;;9.93;100.00;96014.78;5050118;28;20091;-70
2024/04/02 08:52:25;;;;;;;;;;;;;;;9.90;100.00;96007.38;5066297;28;19957;-70
2024/04/02 08:54:51;;;;;;;;;;;;;;;9.84;100.00;96026.59;5033689;28;19963;-70
2024/04/02 08:57:18;;;;;;;;;;;;;;;9.78;100.00;96037.97;5067951;28;19937;-70
2024/04/02 08:59:45;;;;;;;;;;;;;;;9.89;100.00;96068.63;5067153;28;19938;-75
2024/04/02 09:02:11;;;;;;;;;;;;;;;9.93;100.00;96054.06;5067815;28;19933;-74
2024/04/02 09:04:37;;;;;;;;;;;;;;;10.12;100.00;96046.94;5067368;28;19939;-75
2024/04/02 09:07:03;;;;;;;;;;;;;;;10.50;100.00;96056.28;5067495;28;19941;-74
2024/04/02 09:09:29;;;;;;;;;;;;;;;10.79;100.00;95991.63;5066898;28;19953;-75
2024/04/02 09:11:55;;;;;;;;;;;;;;;11.03;100.00;95979.28;5033290;28;19955;-75
2024/04/02 09:14:21;;;;;;;;;;;;;;;11.26;100.00;95978.41;5049061;28;19964;-76
2024/04/02 09:16:47;;;;;;;;;;;;;;;11.37;98.92;95961.81;5067527;28;20124;-74
2024/04/02 09:19:13;;;;;;;;;;;;;;;11.46;95.68;95943.06;5066803;28;20225;-73
2024/04/02 09:21:39;;;;;;;;;;;;;;;11.73;95.15;95936.16;5066704;28;19936;-74
2024/04/02 09:24:07;;;;;;;;;;;;;;;11.80;90.62;95909.78;5066663;28;20160;-73
2024/04/02 09:26:32;;;;;;;;;;;;;;;12.05;93.34;95926.97;5066533;28;19946;-74
2024/04/02 09:28:58;;;;;;;;;;;;;;;12.28;85.72;95891.84;5066665;28;19965;-74
2024/04/02 09:31:26;;;;;;;;;;;;;;;12.21;82.69;95867.56;5066439;28;19996;-74
2024/04/02 09:33:52;;;;;;;;;;;;;;;11.86;82.07;95868.59;5066127;28;19943;-70
2024/04/02 09:36:27;;;;;;;;;;;;;;;11.64;84.57;95886.91;5067051;28;19971;-70
2024/04/02 09:38:54;;;;;;;;;;;;;;;11.72;89.55;95920.66;5048699;28;19935;-69
2024/04/02 09:41:21;;;;;;;;;;;;;;;12.09;90.06;95913.13;5066354;28;19942;-69
2024/04/02 09:43:48;;;;;;;;;;;;;;;12.44;86.03;95901.53;5066827;28;19939;-70
2024/04/02 09:46:15;;;;;;;;;;;;;;;12.35;79.55;95869.59;5066250;28;19940;-70
2024/04/02 09:48:42;;;;;;;;;;;;;;;12.18;78.17;95871.47;5066761;28;19945;-70
2024/04/02 09:51:07;;;;;;;;;;;;;;;12.14;80.27;95894.03;5066394;28;19948;-69
2024/04/02 09:53:34;;;;;;;;;;;;;;;12.20;80.92;95900.94;5066789;28;19944;-73
2024/04/02 09:56:00;;;;;;;;;;;;;;;12.09;78.46;95933.34;5065497;28;20219;-75
2024/04/02 09:58:26;;;;;;;;;;;;;;;11.93;78.20;95969.13;5048321;28;19936;-73
2024/04/02 10:00:56;;;;;;;;;;;;;;;11.77;78.38;95973.28;5048905;28;19945;-74
2024/04/02 10:03:24;;;;;;;;;;;;;;;11.61;81.17;95995.84;5064703;28;19946;-76
2024/04/02 10:05:50;;;;;;;;;;;;;;;11.49;84.30;95995.13;5065448;28;19963;-74
2024/04/02 10:08:16;;;;;;;;;;;;;;;11.52;83.51;96013.81;5064592;28;19980;-74
2024/04/02 10:10:42;;;;;;;;;;;;;;;11.49;91.16;96040.53;5065891;28;20162;-79
2024/04/02 10:13:08;;;;;;;;;;;;;;;11.39;96.45;96077.09;5048783;28;19997;-70
2024/04/02 10:15:34;;;;;;;;;;;;;;;11.08;97.03;96081.69;5066285;28;19943;-69
2024/04/02 10:18:00;;;;;;;;;;;;;;;10.76;99.00;96092.53;5065666;28;19936;-69
2024/04/02 10:20:27;;;;;;;;;;;;;;;10.47;99.62;96086.34;5065850;28;20240;-69
2024/04/02 10:22:54;;;;;;;;;;;;;;;10.60;100.00;96093.19;5065358;28;19941;-69
2024/04/02 10:25:20;;;;;;;;;;;;;;;10.99;100.00;96082.28;5066090;28;19959;-68
2024/04/02 10:27:49;;;;;;;;;;;;;;;11.50;100.00;96068.38;5065337;28;19952;-69
2024/04/02 10:30:19;;;;;;;;;;;;;;;12.02;97.87;96049.16;5065455;28;19939;-70
2024/04/02 10:32:45;;;;;;;;;;;;;;;12.28;86.70;96005.66;5048199;28;19968;-76
2024/04/02 10:35:18;;;;;;;;;;;;;;;12.42;87.71;96000.91;5064281;28;19991;-76
2024/04/02 10:37:44;;;;;;;;;;;;;;;12.64;89.71;96022.00;5065305;28;19941;-76
2024/04/02 10:40:10;;;;;;;;;;;;;;;12.76;80.69;95972.69;5065735;28;19936;-76
2024/04/02 10:42:37;;;;;;;;;;;;;;;12.99;86.79;96010.38;5065250;28;19933;-76
2024/04/02 10:45:04;;;;;;;;;;;;;;;13.15;79.38;95977.94;5063864;28;19947;-75
2024/04/02 10:47:30;;;;;;;;;;;;;;;13.34;81.75;95993.47;5065419;28;19942;-73
2024/04/02 10:49:56;;;;;;;;;;;;;;;13.40;73.01;95984.56;5065615;28;19934;-68
2024/04/02 10:52:22;;;;;;;;;;;;;;;13.61;78.25;95998.75;5047712;28;19951;-68
2024/04/02 10:54:47;;;;;;;;;;;;;;;13.75;70.51;95978.06;5047323;28;19932;-69
2024/04/02 10:57:13;;;;;;;;;;;;;;;13.97;71.03;95975.38;5047808;28;19947;-69
2024/04/02 10:59:45;;;;;;;;;;;;;;;14.18;72.77;95979.75;5065694;28;19939;-68
2024/04/02 11:02:16;;;;;;;;;;;;;;;14.25;69.90;95969.00;5064772;28;19939;-69
2024/04/02 11:04:42;;;;;;;;;;;;;;;13.74;67.33;95965.94;5064774;28;19953;-69
2024/04/02 11:07:11;;;;;;;;;;;;;;;13.81;73.11;95987.59;5047344;28;19942;-71
2024/04/02 11:09:39;;;;;;;;;;;;;;;13.54;67.63;95977.88;5046884;28;19991;-76
2024/04/02 11:12:05;;;;;;;;;;;;;;;13.52;68.62;95990.50;5065384;28;20138;-76
2024/04/02 11:14:31;;;;;;;;;;;;;;;13.67;68.20;95989.03;5064629;28;19936;-76
2024/04/02 11:16:57;;;;;;;;;;;;;;;13.78;69.11;95990.75;5046711;28;19977;-76
2024/04/02 11:19:23;;;;;;;;;;;;;;;13.87;67.44;95983.19;5047402;28;19957;-76
2024/04/02 11:24:57;;;;;;;;;;;;;;;14.05;68.73;96005.75;5064686;28;19970;-75
2024/04/02 11:27:22;;;;;;;;;;;;;;;14.43;65.52;96003.97;5047299;28;20130;-76
2024/04/02 11:29:48;;;;;;;;;;;;;;;14.40;65.14;96021.06;5046685;28;19944;-77
2024/04/02 11:32:14;;;;;;;;;;;;;;;14.28;60.27;96026.53;5064262;28;20001;-77
2024/04/02 11:34:40;;;;;;;;;;;;;;;14.41;65.39;96033.22;5064244;28;19996;-77
2024/04/02 11:37:06;;;;;;;;;;;;;;;14.26;63.13;96036.53;5064969;28;20115;-77
2024/04/02 11:39:32;;;;;;;;;;;;;;;14.06;60.22;96042.41;5046350;28;20007;-77
2024/04/02 11:41:58;;;;;;;;;;;;;;;13.64;64.14;96050.94;5064178;28;19936;-70
2024/04/02 11:44:24;;;;;;;;;;;;;;;13.23;72.31;96081.22;5047245;28;19934;-69
2024/04/02 11:46:50;;;;;;;;;;;;;;;12.86;76.23;96093.09;5064891;28;19935;-74
2024/04/02 11:49:16;;;;;;;;;;;;;;;12.58;81.15;96091.38;5064044;28;19937;-75
2024/04/02 11:51:41;;;;;;;;;;;;;;;12.77;83.59;96090.06;5063933;28;19950;-75
2024/04/02 11:54:07;;;;;;;;;;;;;;;13.11;78.87;96078.72;5046391;28;19941;-76
2024/04/02 12:02:02;;;;;;;;;;;;;;;13.15;69.79;96071.94;5063965;28;19941;-70
2024/04/02 12:04:28;;;;;;;;;;;;;;;13.17;72.68;96077.75;5063905;28;20132;-76
2024/04/02 12:06:57;;;;;;;;;;;;;;;13.45;69.65;96068.13;5046815;28;19991;-75
2024/04/02 12:09:23;;;;;;;;;;;;;;;13.82;72.37;96070.91;5063871;28;19960;-75
2024/04/02 12:11:48;;;;;;;;;;;;;;;13.99;66.97;96063.72;5064333;28;20137;-76
2024/04/02 12:14:14;;;;;;;;;;;;;;;14.02;65.56;96063.19;5064038;28;19998;-76
2024/04/02 12:16:40;;;;;;;;;;;;;;;14.09;63.74;96057.75;5063806;28;19944;-75
2024/04/02 12:19:06;;;;;;;;;;;;;;;14.30;62.93;96042.91;5064253;28;19951;-77
2024/04/02 12:21:32;;;;;;;;;;;;;;;14.39;64.11;96044.03;5063714;28;19940;-75
2024/04/02 12:23:57;;;;;;;;;;;;;;;14.33;64.70;96057.41;5046008;28;19963;-69
2024/04/02 12:26:23;;;;;;;;;;;;;;;14.18;61.12;96055.44;5046660;28;19948;-70
2024/04/02 12:28:50;;;;;;;;;;;;;;;13.97;62.91;96062.38;5063631;28;19939;-70
2024/04/02 12:31:16;;;;;;;;;;;;;;;13.81;63.61;96056.91;5046095;28;19948;-70
2024/04/02 12:33:42;;;;;;;;;;;;;;;13.94;64.87;96065.50;5063688;28;19965;-69
2024/04/02 12:36:08;;;;;;;;;;;;;;;13.98;59.39;96043.69;5063570;28;20251;-70
2024/04/02 12:38:34;;;;;;;;;;;;;;;14.31;64.36;96056.88;5064344;28;19935;-74
2024/04/02 12:41:02;;;;;;;;;;;;;;;14.72;60.39;96058.03;5063297;28;20165;-75
2024/04/02 12:43:28;;;;;;;;;;;;;;;14.94;57.53;96049.19;5030262;28;20117;-75
2024/04/02 12:45:55;;;;;;;;;;;;;;;15.14;53.39;96030.00;5063511;28;19938;-75
2024/04/02 12:48:21;;;;;;;;;;;;;;;15.14;54.93;96049.31;5045747;28;20009;-75